sensor_id;sensor_type;location;lat;lon;timestamp;pressure;altitude;pressure_sealevel;temperature;humidity
15694;BME280;7947;48.834;9.132;2023-03-04T00:02:00;98745.59;;;2.63;70.86
15694;BME280;7947;48.834;9.132;2023-03-04T00:05:04;98744.59;;;2.64;70.81
15694;BME280;7947;48.834;9.132;2023-03-04T00:08:07;98741.94;;;2.64;70.55
15694;BME280;7947;48.834;9.132;2023-03-04T00:11:11;98748.25;;;2.63;70.41
15694;BME280;7947;48.834;9.132;2023-03-04T00:14:14;98746.41;;;2.64;70.14
15694;BME280;7947;48.834;9.132;2023-03-04T00:17:17;98748.50;;;2.55;70.25
15694;BME280;7947;48.834;9.132;2023-03-04T00:20:19;98748.28;;;2.50;70.38
15694;BME280;7947;48.834;9.132;2023-03-04T00:23:22;98753.19;;;2.40;70.79
15694;BME280;7947;48.834;9.132;2023-03-04T00:26:27;98744.47;;;2.40;70.80
15694;BME280;7947;48.834;9.132;2023-03-04T00:29:29;98750.78;;;2.39;70.08
15694;BME280;7947;48.834;9.132;2023-03-04T00:32:32;98750.97;;;2.37;70.39
15694;BME280;7947;48.834;9.132;2023-03-04T00:35:35;98756.66;;;2.34;70.90
15694;BME280;7947;48.834;9.132;2023-03-04T00:38:38;98759.53;;;2.33;70.06
15694;BME280;7947;48.834;9.132;2023-03-04T00:41:42;98746.94;;;2.28;70.17
15694;BME280;7947;48.834;9.132;2023-03-04T00:44:45;98751.38;;;2.34;70.48
15694;BME280;7947;48.834;9.132;2023-03-04T00:47:48;98756.28;;;2.31;70.45
15694;BME280;7947;48.834;9.132;2023-03-04T00:50:50;98752.22;;;2.28;70.31
15694;BME280;7947;48.834;9.132;2023-03-04T00:53:54;98743.47;;;2.28;70.25
15694;BME280;7947;48.834;9.132;2023-03-04T00:57:01;98751.81;;;2.31;70.20
15694;BME280;7947;48.834;9.132;2023-03-04T01:00:05;98754.66;;;2.23;70.36
15694;BME280;7947;48.834;9.132;2023-03-04T01:03:08;98750.00;;;2.19;71.29
15694;BME280;7947;48.834;9.132;2023-03-04T01:06:11;98743.91;;;2.12;71.08
15694;BME280;7947;48.834;9.132;2023-03-04T01:09:14;98746.53;;;2.12;71.57
15694;BME280;7947;48.834;9.132;2023-03-04T01:12:19;98742.91;;;2.13;71.94
15694;BME280;7947;48.834;9.132;2023-03-04T01:15:22;98732.91;;;2.02;71.65
15694;BME280;7947;48.834;9.132;2023-03-04T01:18:26;98733.56;;;1.97;71.87
15694;BME280;7947;48.834;9.132;2023-03-04T01:21:29;98740.47;;;1.92;71.77
15694;BME280;7947;48.834;9.132;2023-03-04T01:24:32;98739.84;;;1.96;71.69
15694;BME280;7947;48.834;9.132;2023-03-04T01:27:36;98730.69;;;1.99;71.43
15694;BME280;7947;48.834;9.132;2023-03-04T01:30:39;98734.34;;;1.84;71.45
15694;BME280;7947;48.834;9.132;2023-03-04T01:33:42;98734.38;;;1.78;71.95
15694;BME280;7947;48.834;9.132;2023-03-04T01:36:44;98728.84;;;1.86;72.45
15694;BME280;7947;48.834;9.132;2023-03-04T01:39:47;98725.22;;;1.80;73.25
15694;BME280;7947;48.834;9.132;2023-03-04T01:42:52;98726.44;;;1.84;73.38
15694;BME280;7947;48.834;9.132;2023-03-04T01:45:56;98731.94;;;1.83;74.47
15694;BME280;7947;48.834;9.132;2023-03-04T01:48:59;98727.44;;;1.77;74.98
15694;BME280;7947;48.834;9.132;2023-03-04T01:52:02;98719.53;;;1.83;75.68
15694;BME280;7947;48.834;9.132;2023-03-04T01:55:13;98719.13;;;1.93;76.28
15694;BME280;7947;48.834;9.132;2023-03-04T01:58:18;98720.13;;;2.05;77.19
15694;BME280;7947;48.834;9.132;2023-03-04T02:01:21;98731.88;;;2.22;76.87
15694;BME280;7947;48.834;9.132;2023-03-04T02:04:25;98724.56;;;2.24;76.25
15694;BME280;7947;48.834;9.132;2023-03-04T02:07:29;98723.31;;;2.27;76.42
15694;BME280;7947;48.834;9.132;2023-03-04T02:10:33;98725.34;;;2.25;75.93
15694;BME280;7947;48.834;9.132;2023-03-04T02:13:38;98721.88;;;2.31;75.50
15694;BME280;7947;48.834;9.132;2023-03-04T02:16:40;98722.47;;;2.33;75.74
15694;BME280;7947;48.834;9.132;2023-03-04T02:19:48;98717.59;;;2.36;75.61
15694;BME280;7947;48.834;9.132;2023-03-04T02:23:00;98723.47;;;2.45;75.96
15694;BME280;7947;48.834;9.132;2023-03-04T02:26:16;98714.88;;;2.56;75.27
15694;BME280;7947;48.834;9.132;2023-03-04T02:29:20;98710.63;;;2.55;74.75
15694;BME280;7947;48.834;9.132;2023-03-04T02:32:23;98709.03;;;2.41;75.23
15694;BME280;7947;48.834;9.132;2023-03-04T02:35:26;98711.72;;;2.28;76.13
15694;BME280;7947;48.834;9.132;2023-03-04T02:38:29;98717.00;;;2.28;76.14
15694;BME280;7947;48.834;9.132;2023-03-04T02:41:33;98713.16;;;2.24;76.51
15694;BME280;7947;48.834;9.132;2023-03-04T02:44:37;98721.50;;;2.21;76.28
15694;BME280;7947;48.834;9.132;2023-03-04T02:47:40;98719.47;;;2.16;75.99
15694;BME280;7947;48.834;9.132;2023-03-04T02:50:47;98722.34;;;2.08;76.13
15694;BME280;7947;48.834;9.132;2023-03-04T02:53:51;98716.63;;;2.11;76.29
15694;BME280;7947;48.834;9.132;2023-03-04T02:56:59;98722.31;;;2.28;76.78
15694;BME280;7947;48.834;9.132;2023-03-04T03:00:02;98722.31;;;2.28;76.93
15694;BME280;7947;48.834;9.132;2023-03-04T03:03:06;98712.72;;;2.33;76.53
15694;BME280;7947;48.834;9.132;2023-03-04T03:06:09;98718.22;;;2.32;76.27
15694;BME280;7947;48.834;9.132;2023-03-04T03:09:12;98716.38;;;2.39;76.41
15694;BME280;7947;48.834;9.132;2023-03-04T03:12:16;98719.06;;;2.26;76.03
15694;BME280;7947;48.834;9.132;2023-03-04T03:15:19;98718.44;;;2.24;75.56
15694;BME280;7947;48.834;9.132;2023-03-04T03:18:22;98720.91;;;2.06;74.73
15694;BME280;7947;48.834;9.132;2023-03-04T03:21:25;98721.97;;;1.92;75.47
15694;BME280;7947;48.834;9.132;2023-03-04T03:24:28;98721.75;;;1.87;75.01
15694;BME280;7947;48.834;9.132;2023-03-04T03:27:32;98723.97;;;1.76;74.92
15694;BME280;7947;48.834;9.132;2023-03-04T03:30:35;98721.97;;;1.65;75.22
15694;BME280;7947;48.834;9.132;2023-03-04T03:33:38;98722.16;;;1.64;74.76
15694;BME280;7947;48.834;9.132;2023-03-04T03:36:41;98713.22;;;1.65;74.61
15694;BME280;7947;48.834;9.132;2023-03-04T03:39:44;98707.13;;;1.64;74.68
15694;BME280;7947;48.834;9.132;2023-03-04T03:42:48;98713.22;;;1.65;72.74
15694;BME280;7947;48.834;9.132;2023-03-04T03:45:51;98714.25;;;1.64;72.85
15694;BME280;7947;48.834;9.132;2023-03-04T03:48:54;98713.03;;;1.66;72.57
15694;BME280;7947;48.834;9.132;2023-03-04T03:51:57;98714.84;;;1.59;72.49
15694;BME280;7947;48.834;9.132;2023-03-04T03:55:00;98709.16;;;1.62;73.02
15694;BME280;7947;48.834;9.132;2023-03-04T03:58:05;98715.66;;;1.53;72.10
15694;BME280;7947;48.834;9.132;2023-03-04T04:01:08;98713.41;;;1.50;73.00
15694;BME280;7947;48.834;9.132;2023-03-04T04:04:11;98709.16;;;1.43;73.54
15694;BME280;7947;48.834;9.132;2023-03-04T04:07:14;98711.78;;;1.36;74.60
15694;BME280;7947;48.834;9.132;2023-03-04T04:10:17;98714.00;;;1.33;74.90
15694;BME280;7947;48.834;9.132;2023-03-04T04:13:22;98719.72;;;1.43;74.75
15694;BME280;7947;48.834;9.132;2023-03-04T04:16:25;98722.97;;;1.45;74.19
15694;BME280;7947;48.834;9.132;2023-03-04T04:19:28;98722.31;;;1.30;74.73
15694;BME280;7947;48.834;9.132;2023-03-04T04:22:31;98720.13;;;1.33;74.36
15694;BME280;7947;48.834;9.132;2023-03-04T04:25:33;98717.44;;;1.20;74.90
15694;BME280;7947;48.834;9.132;2023-03-04T04:28:38;98716.22;;;1.16;74.44
15694;BME280;7947;48.834;9.132;2023-03-04T04:31:41;98718.44;;;1.13;74.92
15694;BME280;7947;48.834;9.132;2023-03-04T04:34:43;98723.13;;;1.17;74.50
15694;BME280;7947;48.834;9.132;2023-03-04T04:37:46;98719.06;;;1.08;74.73
15694;BME280;7947;48.834;9.132;2023-03-04T04:40:49;98725.34;;;1.20;74.23
15694;BME280;7947;48.834;9.132;2023-03-04T04:43:53;98727.38;;;1.12;73.45
15694;BME280;7947;48.834;9.132;2023-03-04T04:46:56;98729.78;;;1.07;73.84
15694;BME280;7947;48.834;9.132;2023-03-04T04:49:59;98728.78;;;1.01;74.33
15694;BME280;7947;48.834;9.132;2023-03-04T04:53:02;98723.88;;;0.91;75.59
15694;BME280;7947;48.834;9.132;2023-03-04T04:56:09;98718.75;;;0.83;76.02
15694;BME280;7947;48.834;9.132;2023-03-04T04:59:14;98722.63;;;0.81;75.68
15694;BME280;7947;48.834;9.132;2023-03-04T05:02:17;98719.38;;;0.79;76.69
15694;BME280;7947;48.834;9.132;2023-03-04T05:05:20;98734.47;;;0.98;75.56
15694;BME280;7947;48.834;9.132;2023-03-04T05:08:22;98726.75;;;1.03;74.30
15694;BME280;7947;48.834;9.132;2023-03-04T05:11:25;98731.78;;;0.85;75.31
15694;BME280;7947;48.834;9.132;2023-03-04T05:14:29;98739.25;;;0.75;75.31
15694;BME280;7947;48.834;9.132;2023-03-04T05:17:32;98738.84;;;0.71;76.23
15694;BME280;7947;48.834;9.132;2023-03-04T05:20:35;98743.47;;;0.63;75.75
15694;BME280;7947;48.834;9.132;2023-03-04T05:23:41;98744.50;;;0.68;76.09
15694;BME280;7947;48.834;9.132;2023-03-04T05:26:45;98741.25;;;0.66;75.54
15694;BME280;7947;48.834;9.132;2023-03-04T05:29:49;98746.94;;;0.63;74.91
15694;BME280;7947;48.834;9.132;2023-03-04T05:32:51;98746.25;;;0.55;75.16
15694;BME280;7947;48.834;9.132;2023-03-04T05:35:54;98752.94;;;0.51;75.19
15694;BME280;7947;48.834;9.132;2023-03-04T05:38:57;98746.81;;;0.44;75.25
15694;BME280;7947;48.834;9.132;2023-03-04T05:42:00;98745.63;;;0.53;74.64
15694;BME280;7947;48.834;9.132;2023-03-04T05:45:05;98755.00;;;0.55;75.18
15694;BME280;7947;48.834;9.132;2023-03-04T05:48:08;98755.66;;;0.64;72.80
15694;BME280;7947;48.834;9.132;2023-03-04T05:51:11;98754.44;;;0.60;72.98
15694;BME280;7947;48.834;9.132;2023-03-04T05:54:14;98757.22;;;0.58;71.54
15694;BME280;7947;48.834;9.132;2023-03-04T05:57:17;98764.50;;;0.50;72.07
15694;BME280;7947;48.834;9.132;2023-03-04T06:00:22;98763.28;;;0.46;72.15
15694;BME280;7947;48.834;9.132;2023-03-04T06:03:24;98764.03;;;0.40;71.73
15694;BME280;7947;48.834;9.132;2023-03-04T06:06:27;98766.63;;;0.33;71.31
15694;BME280;7947;48.834;9.132;2023-03-04T06:09:30;98766.06;;;0.38;71.24
15694;BME280;7947;48.834;9.132;2023-03-04T06:12:33;98765.03;;;0.39;72.01
15694;BME280;7947;48.834;9.132;2023-03-04T06:15:38;98760.16;;;0.36;70.82
15694;BME280;7947;48.834;9.132;2023-03-04T06:18:41;98770.84;;;0.21;71.66
15694;BME280;7947;48.834;9.132;2023-03-04T06:21:44;98774.41;;;0.14;72.10
15694;BME280;7947;48.834;9.132;2023-03-04T06:24:47;98784.38;;;0.12;74.17
15694;BME280;7947;48.834;9.132;2023-03-04T06:27:50;98785.91;;;0.34;75.28
15694;BME280;7947;48.834;9.132;2023-03-04T06:30:57;98789.09;;;0.57;75.45
15694;BME280;7947;48.834;9.132;2023-03-04T06:33:59;98786.97;;;0.80;75.50
15694;BME280;7947;48.834;9.132;2023-03-04T06:37:02;98789.56;;;1.21;75.52
15694;BME280;7947;48.834;9.132;2023-03-04T06:40:06;98793.53;;;1.77;75.25
15694;BME280;7947;48.834;9.132;2023-03-04T06:43:09;98794.31;;;2.36;73.73
15694;BME280;7947;48.834;9.132;2023-03-04T06:46:13;98797.50;;;2.84;71.96
15694;BME280;7947;48.834;9.132;2023-03-04T06:49:16;98797.53;;;3.22;70.44
15694;BME280;7947;48.834;9.132;2023-03-04T06:52:19;98805.84;;;3.25;68.81
15694;BME280;7947;48.834;9.132;2023-03-04T06:55:22;98806.16;;;3.04;68.72
15694;BME280;7947;48.834;9.132;2023-03-04T06:58:25;98808.31;;;2.83;70.28
15694;BME280;7947;48.834;9.132;2023-03-04T07:01:29;98812.59;;;2.70;71.34
15694;BME280;7947;48.834;9.132;2023-03-04T07:04:32;98811.59;;;2.58;72.07
15694;BME280;7947;48.834;9.132;2023-03-04T07:07:35;98814.69;;;2.42;72.84
15694;BME280;7947;48.834;9.132;2023-03-04T07:10:38;98817.53;;;2.34;73.82
15694;BME280;7947;48.834;9.132;2023-03-04T07:13:41;98821.59;;;2.37;74.36
15694;BME280;7947;48.834;9.132;2023-03-04T07:16:45;98818.16;;;2.23;74.47
15694;BME280;7947;48.834;9.132;2023-03-04T07:19:48;98824.09;;;2.19;75.38
15694;BME280;7947;48.834;9.132;2023-03-04T07:22:51;98826.72;;;2.25;75.75
15694;BME280;7947;48.834;9.132;2023-03-04T07:25:54;98831.00;;;2.26;75.90
15694;BME280;7947;48.834;9.132;2023-03-04T07:29:00;98831.78;;;2.33;76.34
15694;BME280;7947;48.834;9.132;2023-03-04T07:32:07;98835.66;;;2.44;76.46
15694;BME280;7947;48.834;9.132;2023-03-04T07:35:10;98835.03;;;2.48;77.14
15694;BME280;7947;48.834;9.132;2023-03-04T07:38:13;98836.47;;;2.51;77.14
15694;BME280;7947;48.834;9.132;2023-03-04T07:41:17;98840.13;;;2.50;76.90
15694;BME280;7947;48.834;9.132;2023-03-04T07:44:20;98849.69;;;2.51;77.73
15694;BME280;7947;48.834;9.132;2023-03-04T07:47:24;98851.53;;;2.57;77.65
15694;BME280;7947;48.834;9.132;2023-03-04T07:50:27;98850.91;;;2.55;77.56
15694;BME280;7947;48.834;9.132;2023-03-04T07:53:30;98857.03;;;2.49;77.70
15694;BME280;7947;48.834;9.132;2023-03-04T07:56:33;98855.19;;;2.49;78.06
15694;BME280;7947;48.834;9.132;2023-03-04T07:59:36;98850.88;;;2.61;77.80
15694;BME280;7947;48.834;9.132;2023-03-04T08:02:40;98852.31;;;2.70;77.31
15694;BME280;7947;48.834;9.132;2023-03-04T08:05:44;98854.75;;;2.72;77.46
15694;BME280;7947;48.834;9.132;2023-03-04T08:08:47;98848.41;;;2.80;77.43
15694;BME280;7947;48.834;9.132;2023-03-04T08:11:50;98860.41;;;2.89;76.65
15694;BME280;7947;48.834;9.132;2023-03-04T08:14:53;98863.28;;;2.87;76.78
15694;BME280;7947;48.834;9.132;2023-03-04T08:17:57;98866.53;;;2.89;77.30
15694;BME280;7947;48.834;9.132;2023-03-04T08:20:59;98865.69;;;2.89;76.89
15694;BME280;7947;48.834;9.132;2023-03-04T08:24:03;98867.75;;;2.93;77.49
15694;BME280;7947;48.834;9.132;2023-03-04T08:27:09;98868.13;;;2.97;76.80
15694;BME280;7947;48.834;9.132;2023-03-04T08:30:12;98868.78;;;2.92;77.20
15694;BME280;7947;48.834;9.132;2023-03-04T08:33:16;98873.03;;;2.93;77.25
15694;BME280;7947;48.834;9.132;2023-03-04T08:36:19;98869.56;;;2.93;76.77
15694;BME280;7947;48.834;9.132;2023-03-04T08:39:22;98870.56;;;2.98;76.82
15694;BME280;7947;48.834;9.132;2023-03-04T08:42:25;98875.47;;;3.01;76.63
15694;BME280;7947;48.834;9.132;2023-03-04T08:45:28;98875.88;;;2.98;76.60
15694;BME280;7947;48.834;9.132;2023-03-04T08:48:32;98875.84;;;3.05;77.36
15694;BME280;7947;48.834;9.132;2023-03-04T08:51:35;98875.69;;;3.00;76.80
15694;BME280;7947;48.834;9.132;2023-03-04T08:54:38;98868.34;;;3.02;77.08
15694;BME280;7947;48.834;9.132;2023-03-04T08:57:41;98873.00;;;3.06;77.07
15694;BME280;7947;48.834;9.132;2023-03-04T09:00:45;98870.56;;;3.11;76.79
15694;BME280;7947;48.834;9.132;2023-03-04T09:03:51;98874.19;;;3.17;76.99
15694;BME280;7947;48.834;9.132;2023-03-04T09:06:54;98878.47;;;3.18;77.17
15694;BME280;7947;48.834;9.132;2023-03-04T09:09:57;98883.16;;;3.22;77.33
15694;BME280;7947;48.834;9.132;2023-03-04T09:13:00;98880.06;;;3.25;76.79
15694;BME280;7947;48.834;9.132;2023-03-04T09:16:07;98875.38;;;3.27;77.34
15694;BME280;7947;48.834;9.132;2023-03-04T09:19:12;98886.34;;;3.37;76.42
15694;BME280;7947;48.834;9.132;2023-03-04T09:22:15;98890.00;;;3.43;75.73
15694;BME280;7947;48.834;9.132;2023-03-04T09:25:18;98882.03;;;3.49;74.93
15694;BME280;7947;48.834;9.132;2023-03-04T09:28:20;98887.94;;;3.51;75.76
15694;BME280;7947;48.834;9.132;2023-03-04T09:31:24;98880.75;;;3.58;75.30
15694;BME280;7947;48.834;9.132;2023-03-04T09:34:28;98876.47;;;3.57;74.64
15694;BME280;7947;48.834;9.132;2023-03-04T09:37:31;98879.06;;;3.64;73.91
15694;BME280;7947;48.834;9.132;2023-03-04T09:40:38;98875.41;;;3.72;73.38
15694;BME280;7947;48.834;9.132;2023-03-04T09:43:43;98874.13;;;3.74;74.86
15694;BME280;7947;48.834;9.132;2023-03-04T09:46:47;98876.97;;;3.79;73.20
15694;BME280;7947;48.834;9.132;2023-03-04T09:49:55;98867.91;;;3.93;72.40
15694;BME280;7947;48.834;9.132;2023-03-04T09:53:12;98872.19;;;3.94;73.16
15694;BME280;7947;48.834;9.132;2023-03-04T09:56:17;98871.75;;;3.97;72.93
15694;BME280;7947;48.834;9.132;2023-03-04T09:59:24;98874.53;;;4.09;73.31
15694;BME280;7947;48.834;9.132;2023-03-04T10:02:37;98871.13;;;4.26;72.18
15694;BME280;7947;48.834;9.132;2023-03-04T10:05:50;98875.81;;;4.31;70.25
15694;BME280;7947;48.834;9.132;2023-03-04T10:08:58;98870.31;;;4.26;70.43
15694;BME280;7947;48.834;9.132;2023-03-04T10:12:05;98870.00;;;4.40;69.43
15694;BME280;7947;48.834;9.132;2023-03-04T10:15:22;98867.41;;;4.34;69.85
15694;BME280;7947;48.834;9.132;2023-03-04T10:18:29;98864.09;;;4.38;71.16
15694;BME280;7947;48.834;9.132;2023-03-04T10:21:37;98859.75;;;4.44;69.22
15694;BME280;7947;48.834;9.132;2023-03-04T10:24:43;98862.16;;;4.52;68.10
15694;BME280;7947;48.834;9.132;2023-03-04T10:27:51;98859.63;;;4.57;70.01
15694;BME280;7947;48.834;9.132;2023-03-04T10:30:58;98859.13;;;4.67;69.42
15694;BME280;7947;48.834;9.132;2023-03-04T10:34:04;98849.06;;;4.75;66.86
15694;BME280;7947;48.834;9.132;2023-03-04T10:37:09;98846.41;;;4.75;67.90
15694;BME280;7947;48.834;9.132;2023-03-04T10:40:23;98848.59;;;4.78;67.45
15694;BME280;7947;48.834;9.132;2023-03-04T10:43:27;98841.66;;;4.77;66.58
15694;BME280;7947;48.834;9.132;2023-03-04T10:46:31;98848.03;;;4.76;67.03
15694;BME280;7947;48.834;9.132;2023-03-04T10:49:49;98849.00;;;4.82;66.36
15694;BME280;7947;48.834;9.132;2023-03-04T10:52:54;98849.06;;;4.75;66.63
15694;BME280;7947;48.834;9.132;2023-03-04T10:55:57;98842.50;;;4.78;66.06
15694;BME280;7947;48.834;9.132;2023-03-04T10:59:29;98839.16;;;4.82;66.12
15694;BME280;7947;48.834;9.132;2023-03-04T11:02:34;98834.50;;;4.96;64.06
15694;BME280;7947;48.834;9.132;2023-03-04T11:05:37;98824.75;;;4.90;64.56
15694;BME280;7947;48.834;9.132;2023-03-04T11:08:41;98828.41;;;4.95;64.12
15694;BME280;7947;48.834;9.132;2023-03-04T11:11:44;98827.00;;;4.93;64.16
15694;BME280;7947;48.834;9.132;2023-03-04T11:14:48;98823.28;;;4.94;63.86
15694;BME280;7947;48.834;9.132;2023-03-04T11:17:54;98832.81;;;4.83;64.92
15694;BME280;7947;48.834;9.132;2023-03-04T11:20:59;98820.06;;;4.74;64.49
15694;BME280;7947;48.834;9.132;2023-03-04T11:24:10;98827.28;;;4.85;64.20
15694;BME280;7947;48.834;9.132;2023-03-04T11:27:41;98813.03;;;4.79;64.87
15694;BME280;7947;48.834;9.132;2023-03-04T11:30:49;98820.50;;;4.89;64.14
15694;BME280;7947;48.834;9.132;2023-03-04T11:33:57;98820.41;;;4.77;65.30
15694;BME280;7947;48.834;9.132;2023-03-04T11:37:06;98820.88;;;4.74;64.64
15694;BME280;7947;48.834;9.132;2023-03-04T11:40:28;98810.63;;;4.78;64.57
15694;BME280;7947;48.834;9.132;2023-03-04T11:43:37;98807.00;;;4.72;65.16
15694;BME280;7947;48.834;9.132;2023-03-04T11:47:11;98805.72;;;4.75;65.96
15694;BME280;7947;48.834;9.132;2023-03-04T11:50:24;98801.59;;;4.79;65.54
15694;BME280;7947;48.834;9.132;2023-03-04T11:53:36;98803.88;;;4.75;66.01
15694;BME280;7947;48.834;9.132;2023-03-04T11:56:44;98802.66;;;4.78;65.67
15694;BME280;7947;48.834;9.132;2023-03-04T11:59:58;98799.53;;;4.81;64.92
15694;BME280;7947;48.834;9.132;2023-03-04T12:03:23;98806.81;;;4.67;65.21
15694;BME280;7947;48.834;9.132;2023-03-04T12:06:41;98794.50;;;4.73;64.82
15694;BME280;7947;48.834;9.132;2023-03-04T12:09:56;98784.56;;;4.68;66.16
15694;BME280;7947;48.834;9.132;2023-03-04T12:17:09;98773.47;;;4.71;65.91
15694;BME280;7947;48.834;9.132;2023-03-04T12:20:37;98770.81;;;4.71;66.20
15694;BME280;7947;48.834;9.132;2023-03-04T12:24:03;98771.34;;;4.80;65.14
15694;BME280;7947;48.834;9.132;2023-03-04T12:27:19;98761.97;;;4.77;65.01
15694;BME280;7947;48.834;9.132;2023-03-04T12:30:34;98759.25;;;4.66;64.88
15694;BME280;7947;48.834;9.132;2023-03-04T12:33:53;98759.59;;;4.69;65.67
15694;BME280;7947;48.834;9.132;2023-03-04T12:40:41;98743.81;;;4.56;65.79
15694;BME280;7947;48.834;9.132;2023-03-04T12:43:52;98746.72;;;4.54;66.15
15694;BME280;7947;48.834;9.132;2023-03-04T12:47:14;98745.06;;;4.53;66.91
15694;BME280;7947;48.834;9.132;2023-03-04T12:50:30;98740.28;;;4.62;66.60
15694;BME280;7947;48.834;9.132;2023-03-04T12:53:42;98741.91;;;4.63;65.96
15694;BME280;7947;48.834;9.132;2023-03-04T12:56:53;98737.19;;;4.65;65.31
15694;BME280;7947;48.834;9.132;2023-03-04T13:00:02;98737.75;;;4.67;64.51
15694;BME280;7947;48.834;9.132;2023-03-04T13:03:10;98728.56;;;4.70;64.91
15694;BME280;7947;48.834;9.132;2023-03-04T13:06:29;98735.03;;;4.74;65.14
15694;BME280;7947;48.834;9.132;2023-03-04T13:09:42;98731.88;;;4.65;65.12
15694;BME280;7947;48.834;9.132;2023-03-04T13:12:50;98733.50;;;4.66;64.26
15694;BME280;7947;48.834;9.132;2023-03-04T13:16:00;98718.44;;;4.60;64.53
15694;BME280;7947;48.834;9.132;2023-03-04T13:19:44;98730.03;;;4.66;63.95
15694;BME280;7947;48.834;9.132;2023-03-04T13:22:54;98725.72;;;4.65;65.34
15694;BME280;7947;48.834;9.132;2023-03-04T13:26:19;98724.06;;;4.70;63.93
15694;BME280;7947;48.834;9.132;2023-03-04T13:29:33;98725.31;;;4.68;64.32
15694;BME280;7947;48.834;9.132;2023-03-04T13:32:37;98726.03;;;4.75;64.00
15694;BME280;7947;48.834;9.132;2023-03-04T13:35:49;98722.41;;;4.69;64.87
15694;BME280;7947;48.834;9.132;2023-03-04T13:38:59;98717.03;;;4.76;63.37
15694;BME280;7947;48.834;9.132;2023-03-04T13:45:44;98722.41;;;4.69;63.87
15694;BME280;7947;48.834;9.132;2023-03-04T13:49:00;98725.44;;;4.73;64.20
15694;BME280;7947;48.834;9.132;2023-03-04T13:56:04;98715.84;;;4.72;64.74
15694;BME280;7947;48.834;9.132;2023-03-04T13:59:21;98716.81;;;4.77;63.76
15694;BME280;7947;48.834;9.132;2023-03-04T14:02:26;98725.38;;;4.79;63.50
15694;BME280;7947;48.834;9.132;2023-03-04T14:05:35;98723.31;;;4.81;63.44
15694;BME280;7947;48.834;9.132;2023-03-04T14:08:38;98722.25;;;4.82;62.60
15694;BME280;7947;48.834;9.132;2023-03-04T14:11:42;98715.63;;;4.73;62.90
15694;BME280;7947;48.834;9.132;2023-03-04T14:14:49;98721.16;;;4.72;63.76
15694;BME280;7947;48.834;9.132;2023-03-04T14:17:54;98711.78;;;4.69;63.32
15694;BME280;7947;48.834;9.132;2023-03-04T14:20:58;98704.13;;;4.61;64.81
15694;BME280;7947;48.834;9.132;2023-03-04T14:24:05;98705.16;;;4.60;65.75
15694;BME280;7947;48.834;9.132;2023-03-04T14:27:12;98702.88;;;4.64;65.31
15694;BME280;7947;48.834;9.132;2023-03-04T14:30:20;98697.91;;;4.67;64.82
15694;BME280;7947;48.834;9.132;2023-03-04T14:33:44;98705.81;;;4.74;64.74
15694;BME280;7947;48.834;9.132;2023-03-04T14:36:48;98691.59;;;4.68;64.46
15694;BME280;7947;48.834;9.132;2023-03-04T14:39:54;98701.09;;;4.76;64.22
15694;BME280;7947;48.834;9.132;2023-03-04T14:43:02;98695.78;;;4.76;64.43
15694;BME280;7947;48.834;9.132;2023-03-04T14:46:11;98687.22;;;4.74;64.32
15694;BME280;7947;48.834;9.132;2023-03-04T14:49:15;98682.63;;;4.81;66.81
15694;BME280;7947;48.834;9.132;2023-03-04T14:52:28;98685.59;;;4.73;65.41
15694;BME280;7947;48.834;9.132;2023-03-04T14:55:34;98682.63;;;4.81;65.02
15694;BME280;7947;48.834;9.132;2023-03-04T14:58:51;98673.06;;;4.80;64.26
15694;BME280;7947;48.834;9.132;2023-03-04T15:02:13;98674.59;;;4.69;64.86
15694;BME280;7947;48.834;9.132;2023-03-04T15:05:22;98669.41;;;4.63;64.45
15694;BME280;7947;48.834;9.132;2023-03-04T15:08:35;98665.34;;;4.60;65.86
15694;BME280;7947;48.834;9.132;2023-03-04T15:11:44;98668.94;;;4.66;65.63
15694;BME280;7947;48.834;9.132;2023-03-04T15:14:51;98668.72;;;4.67;66.12
15694;BME280;7947;48.834;9.132;2023-03-04T15:17:59;98675.44;;;4.70;66.32
15694;BME280;7947;48.834;9.132;2023-03-04T15:21:04;98673.59;;;4.70;65.74
15694;BME280;7947;48.834;9.132;2023-03-04T15:24:09;98676.25;;;4.70;65.63
15694;BME280;7947;48.834;9.132;2023-03-04T15:27:14;98669.88;;;4.71;65.88
15694;BME280;7947;48.834;9.132;2023-03-04T15:30:21;98676.97;;;4.77;66.12
15694;BME280;7947;48.834;9.132;2023-03-04T15:33:25;98668.63;;;4.74;65.25
15694;BME280;7947;48.834;9.132;2023-03-04T15:36:28;98672.91;;;4.75;65.80
15694;BME280;7947;48.834;9.132;2023-03-04T15:39:31;98673.34;;;4.72;65.37
15694;BME280;7947;48.834;9.132;2023-03-04T15:42:34;98668.28;;;4.70;65.75
15694;BME280;7947;48.834;9.132;2023-03-04T15:45:38;98672.91;;;4.75;65.41
15694;BME280;7947;48.834;9.132;2023-03-04T15:48:42;98669.13;;;4.82;65.40
15694;BME280;7947;48.834;9.132;2023-03-04T15:51:45;98664.94;;;4.75;66.08
15694;BME280;7947;48.834;9.132;2023-03-04T15:54:50;98655.13;;;4.75;66.28
15694;BME280;7947;48.834;9.132;2023-03-04T15:57:54;98663.09;;;4.75;66.27
15694;BME280;7947;48.834;9.132;2023-03-04T16:00:59;98666.09;;;4.79;66.55
15694;BME280;7947;48.834;9.132;2023-03-04T16:04:02;98667.03;;;4.84;65.12
15694;BME280;7947;48.834;9.132;2023-03-04T16:07:06;98661.31;;;4.87;65.84
15694;BME280;7947;48.834;9.132;2023-03-04T16:10:16;98664.38;;;4.84;66.17
15694;BME280;7947;48.834;9.132;2023-03-04T16:13:21;98663.38;;;4.85;65.55
15694;BME280;7947;48.834;9.132;2023-03-04T16:16:26;98667.63;;;4.86;65.10
15694;BME280;7947;48.834;9.132;2023-03-04T16:19:29;98671.88;;;4.76;65.36
15694;BME280;7947;48.834;9.132;2023-03-04T16:22:32;98671.00;;;4.82;65.91
15694;BME280;7947;48.834;9.132;2023-03-04T16:25:35;98675.72;;;4.80;65.49
15694;BME280;7947;48.834;9.132;2023-03-04T16:28:38;98667.81;;;4.73;66.50
15694;BME280;7947;48.834;9.132;2023-03-04T16:31:43;98670.25;;;4.75;67.11
15694;BME280;7947;48.834;9.132;2023-03-04T16:34:46;98659.31;;;4.65;66.97
15694;BME280;7947;48.834;9.132;2023-03-04T16:37:51;98658.78;;;4.63;67.14
15694;BME280;7947;48.834;9.132;2023-03-04T16:40:55;98663.16;;;4.69;67.39
15694;BME280;7947;48.834;9.132;2023-03-04T16:43:58;98661.19;;;4.64;67.67
15694;BME280;7947;48.834;9.132;2023-03-04T16:47:03;98666.28;;;4.66;67.88
15694;BME280;7947;48.834;9.132;2023-03-04T16:50:11;98663.97;;;4.69;67.38
15694;BME280;7947;48.834;9.132;2023-03-04T16:53:22;98672.59;;;4.65;67.60
15694;BME280;7947;48.834;9.132;2023-03-04T16:56:26;98655.53;;;4.61;67.37
15694;BME280;7947;48.834;9.132;2023-03-04T16:59:29;98669.41;;;4.63;68.42
15694;BME280;7947;48.834;9.132;2023-03-04T17:02:34;98664.16;;;4.56;67.75
15694;BME280;7947;48.834;9.132;2023-03-04T17:05:37;98660.25;;;4.58;68.40
15694;BME280;7947;48.834;9.132;2023-03-04T17:08:40;98664.50;;;4.59;69.00